sensor_id;sensor_type;location;lat;lon;timestamp;pressure;altitude;pressure_sealevel;temperature;humidity
56142;BME280;42018;48.588;10.836;2023-02-04T00:00:17;97784.06;;;6.07;90.92
56142;BME280;42018;48.588;10.836;2023-02-04T00:03:03;97781.22;;;6.08;90.61
56142;BME280;42018;48.588;10.836;2023-02-04T00:05:48;97788.13;;;6.09;90.77
56142;BME280;42018;48.588;10.836;2023-02-04T00:08:33;97802.09;;;6.03;90.66
56142;BME280;42018;48.588;10.836;2023-02-04T00:11:19;97803.72;;;5.97;90.09
56142;BME280;42018;48.588;10.836;2023-02-04T00:14:04;97799.06;;;6.06;90.58
56142;BME280;42018;48.588;10.836;2023-02-04T00:16:50;97792.31;;;6.17;90.57
56142;BME280;42018;48.588;10.836;2023-02-04T00:19:35;97788.94;;;6.03;90.10
56142;BME280;42018;48.588;10.836;2023-02-04T00:22:21;97790.97;;;6.01;89.43
56142;BME280;42018;48.588;10.836;2023-02-04T00:25:07;97786.25;;;6.16;88.72
56142;BME280;42018;48.588;10.836;2023-02-04T00:27:52;97793.44;;;5.89;88.23
56142;BME280;42018;48.588;10.836;2023-02-04T00:30:37;97784.50;;;6.04;87.59
56142;BME280;42018;48.588;10.836;2023-02-04T00:33:23;97779.03;;;6.05;86.09
56142;BME280;42018;48.588;10.836;2023-02-04T00:36:08;97795.69;;;5.92;85.40
56142;BME280;42018;48.588;10.836;2023-02-04T00:38:54;97782.63;;;6.11;84.82
56142;BME280;42018;48.588;10.836;2023-02-04T00:41:39;97797.88;;;6.02;84.21
56142;BME280;42018;48.588;10.836;2023-02-04T00:44:25;97801.66;;;6.13;83.52
56142;BME280;42018;48.588;10.836;2023-02-04T00:47:10;97800.69;;;6.00;83.05
56142;BME280;42018;48.588;10.836;2023-02-04T00:49:55;97808.66;;;5.74;82.41
56142;BME280;42018;48.588;10.836;2023-02-04T00:52:41;97811.50;;;5.72;82.44
56142;BME280;42018;48.588;10.836;2023-02-04T00:55:26;97809.69;;;5.73;81.65
56142;BME280;42018;48.588;10.836;2023-02-04T00:58:12;97819.53;;;5.91;80.31
56142;BME280;42018;48.588;10.836;2023-02-04T01:00:57;97810.50;;;5.67;79.07
56142;BME280;42018;48.588;10.836;2023-02-04T01:03:42;97804.88;;;5.63;77.97
56142;BME280;42018;48.588;10.836;2023-02-04T01:06:28;97823.03;;;5.65;78.31
56142;BME280;42018;48.588;10.836;2023-02-04T01:09:13;97826.88;;;5.69;77.78
56142;BME280;42018;48.588;10.836;2023-02-04T01:11:58;97832.19;;;5.62;77.77
56142;BME280;42018;48.588;10.836;2023-02-04T01:14:44;97839.06;;;5.50;77.75
56142;BME280;42018;48.588;10.836;2023-02-04T01:17:29;97830.75;;;5.60;77.16
56142;BME280;42018;48.588;10.836;2023-02-04T01:20:17;97835.38;;;5.64;77.33
56142;BME280;42018;48.588;10.836;2023-02-04T01:23:03;97844.13;;;5.51;77.63
56142;BME280;42018;48.588;10.836;2023-02-04T01:25:48;97855.63;;;5.64;77.72
56142;BME280;42018;48.588;10.836;2023-02-04T01:28:33;97860.06;;;5.63;77.75
56142;BME280;42018;48.588;10.836;2023-02-04T01:31:19;97867.34;;;5.61;77.91
56142;BME280;42018;48.588;10.836;2023-02-04T01:34:04;97870.78;;;5.68;77.89
56142;BME280;42018;48.588;10.836;2023-02-04T01:36:50;97874.66;;;5.59;78.42
56142;BME280;42018;48.588;10.836;2023-02-04T01:39:35;97882.28;;;5.74;78.12
56142;BME280;42018;48.588;10.836;2023-02-04T01:42:21;97891.22;;;5.66;78.44
56142;BME280;42018;48.588;10.836;2023-02-04T01:45:06;97897.28;;;5.60;79.31
56142;BME280;42018;48.588;10.836;2023-02-04T01:47:52;97905.56;;;5.70;78.60
56142;BME280;42018;48.588;10.836;2023-02-04T01:50:38;97913.44;;;5.70;78.41
56142;BME280;42018;48.588;10.836;2023-02-04T01:53:24;97908.19;;;5.64;78.24
56142;BME280;42018;48.588;10.836;2023-02-04T01:56:18;97909.63;;;5.53;78.78
56142;BME280;42018;48.588;10.836;2023-02-04T01:59:10;97920.53;;;5.50;77.92
56142;BME280;42018;48.588;10.836;2023-02-04T02:01:56;97932.25;;;5.54;77.80
56142;BME280;42018;48.588;10.836;2023-02-04T02:04:41;97932.25;;;5.47;77.66
56142;BME280;42018;48.588;10.836;2023-02-04T02:07:27;97926.00;;;5.35;77.98
56142;BME280;42018;48.588;10.836;2023-02-04T02:10:12;97916.91;;;5.31;77.83
56142;BME280;42018;48.588;10.836;2023-02-04T02:12:59;97929.44;;;5.36;77.68
56142;BME280;42018;48.588;10.836;2023-02-04T02:15:46;97931.06;;;5.37;77.55
56142;BME280;42018;48.588;10.836;2023-02-04T02:18:31;97936.91;;;5.25;77.30
56142;BME280;42018;48.588;10.836;2023-02-04T02:21:20;97940.16;;;5.21;77.62
56142;BME280;42018;48.588;10.836;2023-02-04T02:24:29;97936.31;;;5.10;76.91
56142;BME280;42018;48.588;10.836;2023-02-04T02:27:15;97949.41;;;4.97;77.71
56142;BME280;42018;48.588;10.836;2023-02-04T02:30:01;97951.69;;;5.13;76.55
56142;BME280;42018;48.588;10.836;2023-02-04T02:32:47;97958.94;;;5.18;76.61
56142;BME280;42018;48.588;10.836;2023-02-04T02:35:33;97957.53;;;5.15;76.51
56142;BME280;42018;48.588;10.836;2023-02-04T02:38:19;97961.13;;;5.01;76.22
56142;BME280;42018;48.588;10.836;2023-02-04T02:41:05;97959.56;;;5.13;75.88
56142;BME280;42018;48.588;10.836;2023-02-04T02:43:53;97960.75;;;5.04;74.82
56142;BME280;42018;48.588;10.836;2023-02-04T02:46:38;97960.72;;;4.91;73.81
56142;BME280;42018;48.588;10.836;2023-02-04T02:49:25;97959.91;;;4.97;73.75
56142;BME280;42018;48.588;10.836;2023-02-04T02:52:11;97963.97;;;4.93;74.50
56142;BME280;42018;48.588;10.836;2023-02-04T02:54:57;97973.88;;;5.04;73.94
56142;BME280;42018;48.588;10.836;2023-02-04T02:57:47;97968.22;;;5.07;73.38
56142;BME280;42018;48.588;10.836;2023-02-04T03:00:33;97976.31;;;4.99;73.43
56142;BME280;42018;48.588;10.836;2023-02-04T03:03:24;97980.72;;;4.85;73.73
56142;BME280;42018;48.588;10.836;2023-02-04T03:06:14;97972.56;;;4.67;74.50
56142;BME280;42018;48.588;10.836;2023-02-04T03:09:01;97972.16;;;4.63;74.61
56142;BME280;42018;48.588;10.836;2023-02-04T03:11:47;97987.75;;;4.78;73.78
56142;BME280;42018;48.588;10.836;2023-02-04T03:14:33;97976.78;;;4.61;73.79
56142;BME280;42018;48.588;10.836;2023-02-04T03:17:19;97991.38;;;4.70;73.71
56142;BME280;42018;48.588;10.836;2023-02-04T03:20:05;97995.53;;;4.58;73.76
56142;BME280;42018;48.588;10.836;2023-02-04T03:22:51;98003.81;;;4.55;73.72
56142;BME280;42018;48.588;10.836;2023-02-04T03:25:37;98003.03;;;4.61;73.80
56142;BME280;42018;48.588;10.836;2023-02-04T03:28:23;98010.91;;;4.61;74.50
56142;BME280;42018;48.588;10.836;2023-02-04T03:31:08;98022.41;;;4.60;73.70
56142;BME280;42018;48.588;10.836;2023-02-04T03:33:54;98017.13;;;4.53;73.82
56142;BME280;42018;48.588;10.836;2023-02-04T03:36:39;98024.59;;;4.50;74.31
56142;BME280;42018;48.588;10.836;2023-02-04T03:39:24;98029.41;;;4.46;74.36
56142;BME280;42018;48.588;10.836;2023-02-04T03:42:10;98037.72;;;4.50;73.92
56142;BME280;42018;48.588;10.836;2023-02-04T03:44:55;98034.69;;;4.53;73.83
56142;BME280;42018;48.588;10.836;2023-02-04T03:47:41;98036.00;;;4.36;74.59
56142;BME280;42018;48.588;10.836;2023-02-04T03:50:26;98031.81;;;4.41;74.75
56142;BME280;42018;48.588;10.836;2023-02-04T03:53:12;98034.03;;;4.44;74.72
56142;BME280;42018;48.588;10.836;2023-02-04T03:55:57;98045.38;;;4.45;74.38
56142;BME280;42018;48.588;10.836;2023-02-04T03:58:42;98047.38;;;4.43;74.64
56142;BME280;42018;48.588;10.836;2023-02-04T04:01:28;98055.66;;;4.46;74.42
56142;BME280;42018;48.588;10.836;2023-02-04T04:04:13;98060.09;;;4.46;74.86
56142;BME280;42018;48.588;10.836;2023-02-04T04:06:58;98058.91;;;4.55;74.93
56142;BME280;42018;48.588;10.836;2023-02-04T04:09:44;98061.59;;;4.62;74.81
56142;BME280;42018;48.588;10.836;2023-02-04T04:12:29;98055.34;;;4.63;74.67
56142;BME280;42018;48.588;10.836;2023-02-04T04:15:15;98058.59;;;4.71;74.65
56142;BME280;42018;48.588;10.836;2023-02-04T04:18:00;98063.84;;;4.71;74.57
56142;BME280;42018;48.588;10.836;2023-02-04T04:20:46;98066.44;;;4.65;74.62
56142;BME280;42018;48.588;10.836;2023-02-04T04:23:32;98061.41;;;4.63;75.38
56142;BME280;42018;48.588;10.836;2023-02-04T04:26:17;98055.78;;;4.66;75.19
56142;BME280;42018;48.588;10.836;2023-02-04T04:29:02;98055.97;;;4.71;75.17
56142;BME280;42018;48.588;10.836;2023-02-04T04:31:48;98052.19;;;4.80;74.88
56142;BME280;42018;48.588;10.836;2023-02-04T04:34:33;98055.97;;;4.71;75.41
56142;BME280;42018;48.588;10.836;2023-02-04T04:37:18;98060.84;;;4.74;75.94
56142;BME280;42018;48.588;10.836;2023-02-04T04:40:04;98064.69;;;4.78;75.54
56142;BME280;42018;48.588;10.836;2023-02-04T04:42:50;98068.91;;;4.73;75.53
56142;BME280;42018;48.588;10.836;2023-02-04T04:45:35;98067.72;;;4.75;75.42
56142;BME280;42018;48.588;10.836;2023-02-04T04:48:20;98079.31;;;4.53;75.51
56142;BME280;42018;48.588;10.836;2023-02-04T04:51:06;98091.88;;;4.64;75.03
56142;BME280;42018;48.588;10.836;2023-02-04T04:53:54;98098.16;;;4.63;75.19
56142;BME280;42018;48.588;10.836;2023-02-04T04:56:39;98086.25;;;4.67;74.49
56142;BME280;42018;48.588;10.836;2023-02-04T04:59:24;98095.91;;;4.60;74.45
56142;BME280;42018;48.588;10.836;2023-02-04T05:02:10;98094.44;;;4.51;73.44
56142;BME280;42018;48.588;10.836;2023-02-04T05:04:55;98098.59;;;4.39;73.62
56142;BME280;42018;48.588;10.836;2023-02-04T05:07:40;98089.81;;;4.53;72.13
56142;BME280;42018;48.588;10.836;2023-02-04T05:10:26;98093.41;;;4.45;72.15
56142;BME280;42018;48.588;10.836;2023-02-04T05:13:12;98099.47;;;4.46;71.43
56142;BME280;42018;48.588;10.836;2023-02-04T05:15:57;98114.94;;;4.41;71.22
56142;BME280;42018;48.588;10.836;2023-02-04T05:18:43;98118.06;;;4.51;71.49
56142;BME280;42018;48.588;10.836;2023-02-04T05:21:28;98115.63;;;4.49;71.49
56142;BME280;42018;48.588;10.836;2023-02-04T05:24:13;98117.25;;;4.50;71.98
56142;BME280;42018;48.588;10.836;2023-02-04T05:26:59;98119.69;;;4.52;71.91
56142;BME280;42018;48.588;10.836;2023-02-04T05:29:44;98118.91;;;4.58;72.05
56142;BME280;42018;48.588;10.836;2023-02-04T05:32:30;98127.78;;;4.57;71.42
56142;BME280;42018;48.588;10.836;2023-02-04T05:35:15;98125.75;;;4.52;71.53
56142;BME280;42018;48.588;10.836;2023-02-04T05:38:00;98133.81;;;4.51;71.21
56142;BME280;42018;48.588;10.836;2023-02-04T05:40:46;98134.59;;;4.51;70.87
56142;BME280;42018;48.588;10.836;2023-02-04T05:43:31;98136.28;;;4.59;70.64
56142;BME280;42018;48.588;10.836;2023-02-04T05:46:16;98144.78;;;4.61;70.25
56142;BME280;42018;48.588;10.836;2023-02-04T05:49:02;98160.47;;;4.54;70.29
56142;BME280;42018;48.588;10.836;2023-02-04T05:51:47;98154.41;;;4.54;70.47
56142;BME280;42018;48.588;10.836;2023-02-04T05:54:32;98163.03;;;4.48;70.59
56142;BME280;42018;48.588;10.836;2023-02-04T05:57:18;98163.31;;;4.53;70.05
56142;BME280;42018;48.588;10.836;2023-02-04T06:00:04;98164.16;;;4.60;70.30
56142;BME280;42018;48.588;10.836;2023-02-04T06:02:50;98170.25;;;4.67;69.98
56142;BME280;42018;48.588;10.836;2023-02-04T06:05:35;98180.06;;;4.52;70.02
56142;BME280;42018;48.588;10.836;2023-02-04T06:08:21;98182.69;;;4.52;70.52
56142;BME280;42018;48.588;10.836;2023-02-04T06:11:07;98191.97;;;4.54;70.83
56142;BME280;42018;48.588;10.836;2023-02-04T06:13:52;98189.53;;;4.53;70.69
56142;BME280;42018;48.588;10.836;2023-02-04T06:16:37;98184.00;;;4.41;70.82
56142;BME280;42018;48.588;10.836;2023-02-04T06:19:23;98195.44;;;4.33;71.27
56142;BME280;42018;48.588;10.836;2023-02-04T06:22:08;98201.25;;;4.29;71.19
56142;BME280;42018;48.588;10.836;2023-02-04T06:24:53;98208.69;;;4.25;71.85
56142;BME280;42018;48.588;10.836;2023-02-04T06:27:39;98212.56;;;4.29;71.69
56142;BME280;42018;48.588;10.836;2023-02-04T06:30:24;98209.44;;;4.19;71.17
56142;BME280;42018;48.588;10.836;2023-02-04T06:33:09;98222.88;;;4.10;71.72
56142;BME280;42018;48.588;10.836;2023-02-04T06:36:05;98224.66;;;4.09;71.90
56142;BME280;42018;48.588;10.836;2023-02-04T06:38:50;98233.41;;;3.95;72.21
56142;BME280;42018;48.588;10.836;2023-02-04T06:41:36;98224.44;;;4.04;71.81
56142;BME280;42018;48.588;10.836;2023-02-04T06:44:21;98237.34;;;4.05;71.78
56142;BME280;42018;48.588;10.836;2023-02-04T06:47:07;98244.97;;;4.00;72.20
56142;BME280;42018;48.588;10.836;2023-02-04T06:49:52;98245.72;;;3.94;72.78
56142;BME280;42018;48.588;10.836;2023-02-04T06:52:37;98256.16;;;4.09;71.74
56142;BME280;42018;48.588;10.836;2023-02-04T06:55:23;98258.03;;;4.15;71.93
56142;BME280;42018;48.588;10.836;2023-02-04T06:58:08;98262.16;;;4.24;71.67
56142;BME280;42018;48.588;10.836;2023-02-04T07:00:53;98275.53;;;4.29;71.20
56142;BME280;42018;48.588;10.836;2023-02-04T07:03:39;98275.59;;;4.36;70.87
56142;BME280;42018;48.588;10.836;2023-02-04T07:06:24;98277.41;;;4.36;70.94
56142;BME280;42018;48.588;10.836;2023-02-04T07:09:10;98275.41;;;4.38;71.42
56142;BME280;42018;48.588;10.836;2023-02-04T07:11:55;98284.63;;;4.33;71.54
56142;BME280;42018;48.588;10.836;2023-02-04T07:14:40;98285.28;;;4.36;71.33
56142;BME280;42018;48.588;10.836;2023-02-04T07:17:26;98289.44;;;4.30;71.72
56142;BME280;42018;48.588;10.836;2023-02-04T07:20:11;98295.47;;;4.24;71.41
56142;BME280;42018;48.588;10.836;2023-02-04T07:22:57;98290.75;;;4.19;71.86
56142;BME280;42018;48.588;10.836;2023-02-04T07:25:42;98294.25;;;4.26;71.30
56142;BME280;42018;48.588;10.836;2023-02-04T07:28:28;98289.41;;;4.23;71.98
56142;BME280;42018;48.588;10.836;2023-02-04T07:31:14;98297.16;;;4.31;71.70
56142;BME280;42018;48.588;10.836;2023-02-04T07:33:59;98304.66;;;4.35;71.58
56142;BME280;42018;48.588;10.836;2023-02-04T07:36:44;98304.28;;;4.38;71.59
56142;BME280;42018;48.588;10.836;2023-02-04T07:39:30;98319.09;;;4.45;71.76
56142;BME280;42018;48.588;10.836;2023-02-04T07:42:15;98319.91;;;4.46;71.84
56142;BME280;42018;48.588;10.836;2023-02-04T07:45:01;98315.03;;;4.43;71.05
56142;BME280;42018;48.588;10.836;2023-02-04T07:47:46;98324.13;;;4.47;70.69
56142;BME280;42018;48.588;10.836;2023-02-04T07:50:31;98323.13;;;4.48;71.25
56142;BME280;42018;48.588;10.836;2023-02-04T07:53:17;98322.66;;;4.59;70.88
56142;BME280;42018;48.588;10.836;2023-02-04T07:56:02;98332.38;;;4.44;70.83
56142;BME280;42018;48.588;10.836;2023-02-04T07:58:48;98335.44;;;4.47;70.63
56142;BME280;42018;48.588;10.836;2023-02-04T08:01:33;98340.09;;;4.45;70.69
56142;BME280;42018;48.588;10.836;2023-02-04T08:04:19;98341.34;;;4.49;70.61
56142;BME280;42018;48.588;10.836;2023-02-04T08:07:04;98359.13;;;4.54;71.08
56142;BME280;42018;48.588;10.836;2023-02-04T08:09:49;98348.13;;;4.65;71.31
56142;BME280;42018;48.588;10.836;2023-02-04T08:12:35;98345.88;;;4.62;70.37
56142;BME280;42018;48.588;10.836;2023-02-04T08:15:21;98359.16;;;4.75;71.01
56142;BME280;42018;48.588;10.836;2023-02-04T08:18:06;98358.03;;;4.85;70.55
56142;BME280;42018;48.588;10.836;2023-02-04T08:20:51;98364.53;;;4.89;70.36
56142;BME280;42018;48.588;10.836;2023-02-04T08:23:36;98359.66;;;4.86;70.06
56142;BME280;42018;48.588;10.836;2023-02-04T08:26:25;98365.03;;;4.77;70.82
56142;BME280;42018;48.588;10.836;2023-02-04T08:29:11;98376.50;;;4.98;70.53
56142;BME280;42018;48.588;10.836;2023-02-04T08:31:56;98375.00;;;5.10;70.41
56142;BME280;42018;48.588;10.836;2023-02-04T08:34:41;98377.94;;;5.00;69.41
56142;BME280;42018;48.588;10.836;2023-02-04T08:37:28;98377.13;;;5.21;69.64
56142;BME280;42018;48.588;10.836;2023-02-04T08:40:13;98379.59;;;5.29;68.89
56142;BME280;42018;48.588;10.836;2023-02-04T08:42:59;98380.56;;;5.50;69.84
56142;BME280;42018;48.588;10.836;2023-02-04T08:45:44;98384.72;;;5.66;69.52
56142;BME280;42018;48.588;10.836;2023-02-04T08:48:29;98386.09;;;5.62;69.70
56142;BME280;42018;48.588;10.836;2023-02-04T08:51:15;98394.81;;;5.62;68.96
56142;BME280;42018;48.588;10.836;2023-02-04T08:54:01;98391.97;;;5.64;69.20
56142;BME280;42018;48.588;10.836;2023-02-04T08:56:46;98393.97;;;5.62;69.00
56142;BME280;42018;48.588;10.836;2023-02-04T08:59:31;98402.50;;;5.64;68.31
56142;BME280;42018;48.588;10.836;2023-02-04T09:02:17;98414.78;;;5.28;67.72
56142;BME280;42018;48.588;10.836;2023-02-04T09:05:02;98414.13;;;5.48;68.40
56142;BME280;42018;48.588;10.836;2023-02-04T09:07:48;98421.38;;;5.46;68.58
56142;BME280;42018;48.588;10.836;2023-02-04T09:10:33;98424.22;;;5.44;68.48
56142;BME280;42018;48.588;10.836;2023-02-04T09:13:18;98425.41;;;5.42;68.55
56142;BME280;42018;48.588;10.836;2023-02-04T09:16:04;98424.16;;;5.66;68.07
56142;BME280;42018;48.588;10.836;2023-02-04T09:18:49;98425.50;;;5.55;67.91
56142;BME280;42018;48.588;10.836;2023-02-04T09:21:35;98423.03;;;5.53;68.67
56142;BME280;42018;48.588;10.836;2023-02-04T09:24:20;98423.00;;;5.47;69.33
56142;BME280;42018;48.588;10.836;2023-02-04T09:27:08;98421.38;;;5.46;68.90
56142;BME280;42018;48.588;10.836;2023-02-04T09:29:54;98423.09;;;5.60;68.77
56142;BME280;42018;48.588;10.836;2023-02-04T09:32:39;98431.91;;;5.46;69.91
56142;BME280;42018;48.588;10.836;2023-02-04T09:35:25;98430.81;;;5.34;70.03
56142;BME280;42018;48.588;10.836;2023-02-04T09:38:11;98435.72;;;5.22;70.68
56142;BME280;42018;48.588;10.836;2023-02-04T09:40:59;98445.00;;;4.96;70.95
56142;BME280;42018;48.588;10.836;2023-02-04T09:43:45;98444.53;;;5.36;70.74
56142;BME280;42018;48.588;10.836;2023-02-04T09:46:31;98445.41;;;5.43;71.16
56142;BME280;42018;48.588;10.836;2023-02-04T09:49:17;98456.56;;;5.45;70.86
56142;BME280;42018;48.588;10.836;2023-02-04T09:52:15;98461.34;;;5.63;70.49
56142;BME280;42018;48.588;10.836;2023-02-04T09:55:32;98461.81;;;5.45;70.34
56142;BME280;42018;48.588;10.836;2023-02-04T09:58:21;98462.53;;;5.60;69.74
56142;BME280;42018;48.588;10.836;2023-02-04T10:01:15;98465.50;;;5.50;69.71
56142;BME280;42018;48.588;10.836;2023-02-04T10:04:01;98470.75;;;5.50;68.79
56142;BME280;42018;48.588;10.836;2023-02-04T10:06:47;98471.97;;;5.26;69.52
56142;BME280;42018;48.588;10.836;2023-02-04T10:09:33;98468.69;;;5.46;68.92
56142;BME280;42018;48.588;10.836;2023-02-04T10:12:18;98467.03;;;5.66;67.61
56142;BME280;42018;48.588;10.836;2023-02-04T10:15:04;98463.25;;;5.75;68.01
56142;BME280;42018;48.588;10.836;2023-02-04T10:18:04;98464.09;;;5.83;68.14
56142;BME280;42018;48.588;10.836;2023-02-04T10:20:57;98470.19;;;5.83;67.88
56142;BME280;42018;48.588;10.836;2023-02-04T10:23:51;98479.28;;;5.81;67.12
56142;BME280;42018;48.588;10.836;2023-02-04T10:29:16;98486.34;;;5.52;68.27
56142;BME280;42018;48.588;10.836;2023-02-04T10:32:01;98497.97;;;5.43;68.97
56142;BME280;42018;48.588;10.836;2023-02-04T10:34:47;98501.69;;;5.06;71.51
56142;BME280;42018;48.588;10.836;2023-02-04T10:37:32;98505.13;;;5.06;72.24
56142;BME280;42018;48.588;10.836;2023-02-04T10:40:31;98508.69;;;4.98;72.26
56142;BME280;42018;48.588;10.836;2023-02-04T10:43:21;98514.81;;;5.06;71.07
56142;BME280;42018;48.588;10.836;2023-02-04T10:46:07;98514.97;;;5.04;71.33
56142;BME280;42018;48.588;10.836;2023-02-04T10:48:52;98510.97;;;5.23;71.03
56142;BME280;42018;48.588;10.836;2023-02-04T10:51:37;98507.31;;;5.24;71.34
56142;BME280;42018;48.588;10.836;2023-02-04T10:54:33;98508.56;;;5.28;70.71
56142;BME280;42018;48.588;10.836;2023-02-04T10:57:27;98506.25;;;5.40;69.73
56142;BME280;42018;48.588;10.836;2023-02-04T11:03:11;98499.84;;;5.70;68.23
56142;BME280;42018;48.588;10.836;2023-02-04T11:06:00;98492.56;;;5.44;69.63
56142;BME280;42018;48.588;10.836;2023-02-04T11:08:46;98494.44;;;5.79;68.80
56142;BME280;42018;48.588;10.836;2023-02-04T11:11:32;98497.00;;;5.93;68.95
56142;BME280;42018;48.588;10.836;2023-02-04T11:14:23;98499.00;;;5.91;68.39
56142;BME280;42018;48.588;10.836;2023-02-04T11:17:19;98497.47;;;6.04;67.53
56142;BME280;42018;48.588;10.836;2023-02-04T11:20:31;98498.66;;;6.01;67.48
56142;BME280;42018;48.588;10.836;2023-02-04T11:26:17;98491.81;;;6.07;67.25
56142;BME280;42018;48.588;10.836;2023-02-04T11:34:46;98492.28;;;6.17;65.27
56142;BME280;42018;48.588;10.836;2023-02-04T11:40:24;98483.94;;;6.41;63.73
56142;BME280;42018;48.588;10.836;2023-02-04T11:43:14;98478.34;;;6.64;61.78
56142;BME280;42018;48.588;10.836;2023-02-04T11:46:03;98485.44;;;6.22;60.78
56142;BME280;42018;48.588;10.836;2023-02-04T11:48:54;98492.75;;;6.27;61.91
56142;BME280;42018;48.588;10.836;2023-02-04T11:51:39;98491.59;;;6.02;62.79
56142;BME280;42018;48.588;10.836;2023-02-04T11:54:25;98484.44;;;6.23;63.43
56142;BME280;42018;48.588;10.836;2023-02-04T11:57:10;98479.72;;;6.12;62.95
56142;BME280;42018;48.588;10.836;2023-02-04T11:59:58;98480.63;;;6.33;61.41
56142;BME280;42018;48.588;10.836;2023-02-04T12:02:46;98484.22;;;6.25;60.79
56142;BME280;42018;48.588;10.836;2023-02-04T12:05:37;98479.34;;;6.22;61.40
56142;BME280;42018;48.588;10.836;2023-02-04T12:08:34;98489.63;;;6.45;62.39
56142;BME280;42018;48.588;10.836;2023-02-04T12:11:28;98485.88;;;6.33;60.67
56142;BME280;42018;48.588;10.836;2023-02-04T12:14:17;98483.44;;;6.24;60.86
56142;BME280;42018;48.588;10.836;2023-02-04T12:17:19;98481.03;;;6.30;60.97
56142;BME280;42018;48.588;10.836;2023-02-04T12:20:05;98478.88;;;6.46;61.18
56142;BME280;42018;48.588;10.836;2023-02-04T12:22:50;98479.56;;;6.68;61.26
56142;BME280;42018;48.588;10.836;2023-02-04T12:25:35;98478.47;;;6.50;62.57
56142;BME280;42018;48.588;10.836;2023-02-04T12:28:21;98481.78;;;6.65;62.53
56142;BME280;42018;48.588;10.836;2023-02-04T12:31:07;98472.53;;;6.82;61.67
56142;BME280;42018;48.588;10.836;2023-02-04T12:33:52;98475.13;;;6.76;60.04
56142;BME280;42018;48.588;10.836;2023-02-04T12:36:38;98479.19;;;6.78;60.42
56142;BME280;42018;48.588;10.836;2023-02-04T12:39:23;98482.03;;;6.70;60.40
56142;BME280;42018;48.588;10.836;2023-02-04T12:42:09;98482.78;;;6.64;60.27
56142;BME280;42018;48.588;10.836;2023-02-04T12:44:54;98479.03;;;6.80;60.66
56142;BME280;42018;48.588;10.836;2023-02-04T12:47:39;98490.13;;;6.75;59.35
56142;BME280;42018;48.588;10.836;2023-02-04T12:50:25;98488.16;;;6.84;58.81
56142;BME280;42018;48.588;10.836;2023-02-04T12:53:10;98486.50;;;6.83;58.21
56142;BME280;42018;48.588;10.836;2023-02-04T12:55:56;98491.22;;;6.94;59.48
56142;BME280;42018;48.588;10.836;2023-02-04T12:58:41;98494.38;;;6.69;58.53
56142;BME280;42018;48.588;10.836;2023-02-04T13:01:26;98496.66;;;6.86;58.94
56142;BME280;42018;48.588;10.836;2023-02-04T13:04:12;98498.28;;;6.87;58.81
56142;BME280;42018;48.588;10.836;2023-02-04T13:06:57;98497.81;;;6.70;58.51
56142;BME280;42018;48.588;10.836;2023-02-04T13:09:43;98502.81;;;6.52;59.12
56142;BME280;42018;48.588;10.836;2023-02-04T13:12:29;98499.56;;;6.50;59.36
56142;BME280;42018;48.588;10.836;2023-02-04T13:15:14;98513.06;;;6.33;59.14
56142;BME280;42018;48.588;10.836;2023-02-04T13:18:00;98515.31;;;6.08;60.95
56142;BME280;42018;48.588;10.836;2023-02-04T13:20:45;98507.66;;;6.13;60.12
56142;BME280;42018;48.588;10.836;2023-02-04T13:23:31;98510.88;;;6.15;59.75
56142;BME280;42018;48.588;10.836;2023-02-04T13:26:16;98507.28;;;6.16;60.11
56142;BME280;42018;48.588;10.836;2023-02-04T13:29:02;98505.31;;;5.97;61.62
56142;BME280;42018;48.588;10.836;2023-02-04T13:31:47;98500.53;;;6.07;61.51
56142;BME280;42018;48.588;10.836;2023-02-04T13:34:33;98506.63;;;5.86;61.40
56142;BME280;42018;48.588;10.836;2023-02-04T13:37:18;98507.81;;;6.05;61.50
56142;BME280;42018;48.588;10.836;2023-02-04T13:40:05;98511.06;;;6.42;59.13
56142;BME280;42018;48.588;10.836;2023-02-04T13:42:51;98520.13;;;6.74;58.99
56142;BME280;42018;48.588;10.836;2023-02-04T13:45:37;98513.97;;;6.60;58.54
56142;BME280;42018;48.588;10.836;2023-02-04T13:48:22;98517.56;;;6.94;57.31
56142;BME280;42018;48.588;10.836;2023-02-04T13:51:08;98519.97;;;6.89;56.42
56142;BME280;42018;48.588;10.836;2023-02-04T13:53:53;98518.75;;;6.85;57.10
56142;BME280;42018;48.588;10.836;2023-02-04T13:56:39;98532.34;;;6.88;57.16
56142;BME280;42018;48.588;10.836;2023-02-04T13:59:25;98526.75;;;6.63;57.98
56142;BME280;42018;48.588;10.836;2023-02-04T14:08:47;98533.31;;;6.81;55.89
56142;BME280;42018;48.588;10.836;2023-02-04T14:11:33;98533.91;;;6.83;56.82
56142;BME280;42018;48.588;10.836;2023-02-04T14:14:18;98540.97;;;6.76;56.20
56142;BME280;42018;48.588;10.836;2023-02-04T14:17:04;98533.13;;;6.41;55.83
56142;BME280;42018;48.588;10.836;2023-02-04T14:19:49;98541.63;;;6.43;57.26
56142;BME280;42018;48.588;10.836;2023-02-04T14:22:35;98548.72;;;6.42;57.45
56142;BME280;42018;48.588;10.836;2023-02-04T14:25:20;98548.78;;;6.49;55.90
56142;BME280;42018;48.588;10.836;2023-02-04T14:28:08;98550.94;;;6.39;56.71
56142;BME280;42018;48.588;10.836;2023-02-04T14:30:54;98556.34;;;6.31;55.59
56142;BME280;42018;48.588;10.836;2023-02-04T14:33:39;98547.19;;;6.20;56.20
56142;BME280;42018;48.588;10.836;2023-02-04T14:36:25;98546.00;;;6.01;57.94
56142;BME280;42018;48.588;10.836;2023-02-04T14:39:10;98555.41;;;6.10;57.67
56142;BME280;42018;48.588;10.836;2023-02-04T14:41:56;98558.03;;;6.10;55.91
56142;BME280;42018;48.588;10.836;2023-02-04T14:44:41;98552.78;;;6.10;56.91
56142;BME280;42018;48.588;10.836;2023-02-04T14:50:03;98563.09;;;6.12;56.76
56142;BME280;42018;48.588;10.836;2023-02-04T14:52:49;98565.81;;;5.97;58.67
56142;BME280;42018;48.588;10.836;2023-02-04T14:55:34;98566.63;;;5.97;58.81
56142;BME280;42018;48.588;10.836;2023-02-04T14:58:20;98569.84;;;5.71;58.77
56142;BME280;42018;48.588;10.836;2023-02-04T15:01:13;98573.47;;;5.70;59.38
56142;BME280;42018;48.588;10.836;2023-02-04T15:04:06;98572.72;;;5.55;58.40
56142;BME280;42018;48.588;10.836;2023-02-04T15:06:51;98571.84;;;5.91;58.05